Time;durP1;ratioP1;P1;durP2;ratioP2;P2;SDS_P1;SDS_P2;PMS_P1;PMS_P2;Temp;Humidity;BMP_temperature;BMP_pressure;BME280_temperature;BME280_humidity;BME280_pressure;Samples;Min_cycle;Max_cycle;Signal;HPM_P1;HPM_P2
2021/10/28 00:12:36;;;;;;;11.02;7.75;;;;;;;7.03;51.61;94795.56;4964231;28;20133;-74
2021/10/28 00:15:08;;;;;;;13.60;7.13;;;;;;;7.07;51.58;94796.63;4963351;28;20042;-75
2021/10/28 00:20:09;;;;;;;11.48;8.48;;;;;;;6.97;51.39;94801.91;4961277;28;20276;-74
2021/10/28 00:22:35;;;;;;;15.18;7.22;;;;;;;7.02;51.43;94807.19;4966457;28;20702;-74
2021/10/28 00:25:01;;;;;;;11.35;7.40;;;;;;;6.91;51.55;94795.84;4969083;28;20297;-74
2021/10/28 00:27:26;;;;;;;10.88;7.65;;;;;;;6.97;51.68;94807.22;4961170;28;20029;-74
2021/10/28 00:29:52;;;;;;;12.93;8.10;;;;;;;6.92;51.54;94812.50;4970199;28;20049;-74
2021/10/28 00:32:18;;;;;;;13.70;8.35;;;;;;;6.92;51.51;94799.28;4968388;28;20061;-75
2021/10/28 00:34:43;;;;;;;13.75;8.95;;;;;;;6.94;51.51;94813.03;4965171;28;20516;-74
2021/10/28 00:37:10;;;;;;;12.15;8.70;;;;;;;6.99;51.46;94797.16;4971301;28;20069;-74
2021/10/28 00:39:36;;;;;;;12.10;8.73;;;;;;;6.98;51.44;94792.94;4960865;28;20494;-74
2021/10/28 00:42:03;;;;;;;16.90;9.55;;;;;;;6.64;51.46;94740.59;4964191;28;20076;-75
2021/10/28 00:44:28;;;;;;;14.23;9.15;;;;;;;6.96;51.53;94790.53;4968662;28;20027;-75
2021/10/28 00:46:53;;;;;;;13.68;8.32;;;;;;;6.86;51.67;94780.75;4965860;28;20041;-75
2021/10/28 00:49:19;;;;;;;12.45;8.50;;;;;;;7.01;51.48;94792.38;4962971;28;20060;-75
2021/10/28 00:51:44;;;;;;;11.80;8.55;;;;;;;7.01;51.39;94784.44;4966812;28;20081;-74
2021/10/28 00:54:18;;;;;;;12.05;8.00;;;;;;;7.12;51.16;94780.75;4967756;28;20030;-74
2021/10/28 00:56:43;;;;;;;17.77;9.10;;;;;;;7.07;51.25;94791.31;4961589;28;20558;-74
2021/10/28 00:59:10;;;;;;;15.70;9.68;;;;;;;6.99;51.31;94786.59;4966506;28;20046;-74
2021/10/28 01:01:36;;;;;;;12.50;9.02;;;;;;;6.77;51.31;94755.13;4967892;28;20560;-74
2021/10/28 01:04:02;;;;;;;18.23;8.55;;;;;;;6.82;51.54;94765.69;4962000;28;20038;-74
2021/10/28 01:06:28;;;;;;;13.63;8.82;;;;;;;6.86;51.28;94759.59;4970066;28;20054;-75
2021/10/28 01:08:54;;;;;;;19.05;10.32;;;;;;;6.97;51.21;94786.84;4957356;28;20164;-74
2021/10/28 01:11:20;;;;;;;12.77;8.75;;;;;;;6.83;51.45;94764.66;4967193;28;20144;-75
2021/10/28 01:13:45;;;;;;;16.40;9.50;;;;;;;6.79;51.16;94769.69;4965075;28;20042;-75
2021/10/28 01:16:11;;;;;;;21.25;10.27;;;;;;;6.66;51.57;94749.06;4967636;28;20550;-75
2021/10/28 01:18:38;;;;;;;14.07;9.48;;;;;;;6.71;51.71;94761.47;4962469;28;20030;-75
2021/10/28 01:21:07;;;;;;;18.20;9.85;;;;;;;6.82;51.77;94774.44;4966588;28;20077;-75
2021/10/28 01:23:33;;;;;;;15.98;8.77;;;;;;;6.81;52.01;94766.75;4981768;28;20046;-74
2021/10/28 01:26:00;;;;;;;14.65;9.55;;;;;;;6.46;52.04;94714.69;4968635;28;20046;-76
2021/10/28 01:28:28;;;;;;;9.88;7.50;;;;;;;6.80;51.37;94759.88;4967006;28;20050;-75
2021/10/28 01:30:58;;;;;;;13.50;7.80;;;;;;;6.84;51.57;94764.38;4960915;28;20038;-75
2021/10/28 01:33:25;;;;;;;12.48;7.45;;;;;;;6.77;51.47;94761.22;4965269;28;20038;-74
2021/10/28 01:35:51;;;;;;;13.27;7.82;;;;;;;6.50;51.82;94746.69;4964539;28;20096;-75
2021/10/28 01:38:18;;;;;;;11.98;7.82;;;;;;;6.72;51.43;94761.22;4965660;28;20045;-75
2021/10/28 01:40:53;;;;;;;12.55;8.35;;;;;;;6.95;50.79;94767.00;4961519;28;20510;-75
2021/10/28 01:43:19;;;;;;;13.00;9.23;;;;;;;6.48;51.46;94741.66;4965974;28;20658;-76
2021/10/28 01:45:44;;;;;;;15.90;8.65;;;;;;;6.53;51.63;94762.81;4964077;28;20038;-75
2021/10/28 01:48:10;;;;;;;20.55;9.57;;;;;;;6.46;51.74;94762.25;4967203;28;20096;-75
2021/10/28 01:50:35;;;;;;;16.80;9.88;;;;;;;6.39;51.84;94751.16;4962255;28;20393;-75
2021/10/28 01:53:01;;;;;;;15.02;8.52;;;;;;;6.46;51.92;94764.91;4967640;28;20060;-75
2021/10/28 01:55:26;;;;;;;12.77;8.98;;;;;;;6.37;51.68;94740.06;4962607;28;20054;-75
2021/10/28 01:57:51;;;;;;;13.30;8.13;;;;;;;6.49;51.31;94758.31;4961813;28;20029;-74
2021/10/28 02:00:21;;;;;;;11.70;7.43;;;;;;;6.46;51.42;94767.53;4966022;28;20252;-74
2021/10/28 02:02:47;;;;;;;11.77;7.43;;;;;;;6.00;51.65;94704.09;4977887;28;20039;-75
2021/10/28 02:05:13;;;;;;;10.77;7.28;;;;;;;6.34;51.71;94759.09;4962872;28;20785;-75
2021/10/28 02:07:39;;;;;;;10.13;7.38;;;;;;;6.21;51.82;94744.56;4992939;28;20046;-74
2021/10/28 02:10:06;;;;;;;16.27;8.57;;;;;;;6.34;51.82;94761.75;4962136;28;20375;-74
2021/10/28 02:12:33;;;;;;;12.35;6.90;;;;;;;6.41;51.89;94772.81;4967269;28;20030;-74
2021/10/28 02:14:59;;;;;;;14.68;8.05;;;;;;;6.30;51.68;94732.41;4964139;28;20074;-75
2021/10/28 02:17:24;;;;;;;14.63;8.23;;;;;;;6.47;51.74;94750.63;4961261;28;20129;-74
2021/10/28 02:19:49;;;;;;;10.38;7.32;;;;;;;6.36;51.67;94735.88;4965964;28;20222;-74
2021/10/28 02:22:15;;;;;;;15.45;7.97;;;;;;;6.35;51.52;94740.34;4965138;28;20444;-75
2021/10/28 02:24:41;;;;;;;14.60;8.23;;;;;;;6.42;51.33;94742.72;4961156;28;20440;-74
2021/10/28 02:27:06;;;;;;;13.85;8.07;;;;;;;6.39;51.72;94737.97;4965368;28;20050;-74
2021/10/28 02:29:32;;;;;;;13.80;9.05;;;;;;;6.21;51.64;94709.44;4960665;28;20042;-75
2021/10/28 02:31:58;;;;;;;11.60;8.07;;;;;;;6.33;51.89;94739.81;4964077;28;20054;-74
2021/10/28 02:34:25;;;;;;;12.32;7.55;;;;;;;6.29;51.62;94753.81;4966356;28;20047;-75
2021/10/28 02:36:51;;;;;;;14.32;7.97;;;;;;;6.18;51.47;94734.50;4966803;28;20460;-75
2021/10/28 02:39:16;;;;;;;12.07;7.45;;;;;;;6.13;51.51;94729.19;4964171;28;20429;-75
2021/10/28 02:41:43;;;;;;;12.55;7.70;;;;;;;6.21;51.59;94741.13;4961953;28;20092;-75
2021/10/28 02:44:09;;;;;;;11.35;7.97;;;;;;;5.96;51.75;94713.59;4964189;28;20043;-75
2021/10/28 02:46:35;;;;;;;12.07;7.95;;;;;;;6.00;52.00;94735.78;4962716;28;20135;-75
2021/10/28 02:49:00;;;;;;;11.68;7.53;;;;;;;6.02;51.70;94747.94;4961416;28;20034;-74
2021/10/28 02:51:27;;;;;;;12.13;6.97;;;;;;;5.90;52.07;94756.88;4964880;28;20084;-75
2021/10/28 02:53:52;;;;;;;11.32;7.07;;;;;;;5.96;52.08;94763.78;4967868;28;20644;-75
2021/10/28 02:56:18;;;;;;;11.65;7.13;;;;;;;5.98;52.31;94759.00;4968254;28;20046;-75
2021/10/28 02:58:43;;;;;;;11.23;6.43;;;;;;;5.94;52.03;94746.59;4965104;28;20054;-75
2021/10/28 03:01:08;;;;;;;13.93;6.97;;;;;;;5.85;52.11;94754.22;4967208;28;20055;-74
2021/10/28 03:03:35;;;;;;;12.82;8.00;;;;;;;5.90;52.09;94770.09;4962480;28;20080;-75
2021/10/28 03:06:01;;;;;;;14.80;9.55;;;;;;;6.02;52.10;94772.47;4967105;28;20050;-75
2021/10/28 03:08:26;;;;;;;14.35;8.43;;;;;;;6.08;51.20;94742.38;4960184;28;20069;-74
2021/10/28 03:10:52;;;;;;;16.35;8.75;;;;;;;5.83;51.37;94755.53;4960599;28;20042;-74
2021/10/28 03:13:20;;;;;;;14.07;8.55;;;;;;;6.04;51.63;94777.50;4966518;28;20501;-74
2021/10/28 03:15:47;;;;;;;13.95;8.80;;;;;;;5.92;51.87;94769.84;4963385;28;20417;-75
2021/10/28 03:26:18;;;;;;;12.95;8.73;;;;;;;5.92;51.80;94798.88;4969429;28;20097;-74
2021/10/28 03:28:43;;;;;;;10.05;7.30;;;;;;;5.93;51.73;94795.16;4965357;28;20038;-75
2021/10/28 03:31:08;;;;;;;15.55;8.00;;;;;;;5.42;51.90;94725.59;4966640;28;20045;-75
2021/10/28 03:33:36;;;;;;;14.07;8.88;;;;;;;5.80;52.09;94779.81;4970936;28;20355;-75
2021/10/28 03:36:03;;;;;;;11.10;7.72;;;;;;;5.80;51.99;94783.25;4982793;28;20042;-75
2021/10/28 03:38:38;;;;;;;16.27;8.63;;;;;;;5.86;51.56;94795.44;4967119;28;20130;-74
2021/10/28 03:42:02;;;;;;;;;;;;;;;5.90;51.83;94793.84;4965371;28;20815;-75
2021/10/28 04:18:42;;;;;;;16.20;9.13;;;;;;;5.76;52.16;94798.03;4966112;28;21089;-75
2021/10/28 04:29:05;;;;;;;18.48;10.55;;;;;;;5.24;52.15;94747.13;4965980;28;20378;-75
2021/10/28 04:31:35;;;;;;;15.90;9.73;;;;;;;5.65;52.34;94800.88;4964653;28;20103;-75
2021/10/28 04:34:05;;;;;;;19.75;10.88;;;;;;;5.56;52.03;94798.75;4973008;28;20838;-74
2021/10/28 04:36:31;;;;;;;15.88;10.50;;;;;;;5.46;52.23;94782.88;4964160;28;20030;-75
2021/10/28 04:38:59;;;;;;;14.45;8.98;;;;;;;5.59;52.30;94810.63;4967982;28;20038;-75
2021/10/28 04:41:25;;;;;;;17.20;9.65;;;;;;;5.73;51.75;94795.88;4964308;28;20053;-75
2021/10/28 04:43:51;;;;;;;15.25;8.68;;;;;;;5.68;51.61;94819.63;4966404;28;20316;-75
2021/10/28 04:46:17;;;;;;;16.27;9.75;;;;;;;5.70;51.84;94820.16;4964177;28;20120;-75
2021/10/28 04:48:43;;;;;;;16.80;10.25;;;;;;;5.63;51.86;94813.56;4968128;28;20037;-74
2021/10/28 04:51:08;;;;;;;16.98;9.40;;;;;;;5.40;52.26;94791.78;4964473;28;20018;-74
2021/10/28 04:53:34;;;;;;;15.23;9.43;;;;;;;5.52;52.28;94813.50;4966569;28;20045;-74
2021/10/28 04:55:59;;;;;;;15.63;11.45;;;;;;;5.47;52.24;94799.50;4974114;28;20061;-75
2021/10/28 04:58:25;;;;;;;17.98;10.55;;;;;;;5.48;52.29;94816.91;4957251;28;20715;-74
2021/10/28 05:00:51;;;;;;;16.25;10.15;;;;;;;5.28;52.38;94795.69;4969115;28;20089;-75
2021/10/28 05:03:17;;;;;;;15.88;9.55;;;;;;;5.29;52.29;94807.81;4965152;28;21380;-75
2021/10/28 05:05:42;;;;;;;15.73;9.90;;;;;;;5.36;52.71;94824.22;4962853;28;20502;-76
2021/10/28 05:08:07;;;;;;;13.80;8.65;;;;;;;5.31;52.93;94817.06;4962732;28;20050;-75
2021/10/28 05:10:34;;;;;;;15.65;9.63;;;;;;;5.35;52.79;94814.72;4962668;28;20645;-75
2021/10/28 05:13:00;;;;;;;23.95;9.98;;;;;;;5.47;52.31;94816.13;4964894;28;20023;-75
2021/10/28 05:15:25;;;;;;;15.32;9.35;;;;;;;5.42;52.53;94812.66;4960150;28;20501;-74
2021/10/28 05:17:51;;;;;;;16.17;9.52;;;;;;;5.30;53.01;94809.41;4963476;28;20155;-74
2021/10/28 05:20:16;;;;;;;16.80;10.02;;;;;;;5.43;52.72;94820.28;4970286;28;20051;-74
2021/10/28 05:22:42;;;;;;;16.10;9.55;;;;;;;5.37;52.93;94829.25;4964614;28;20086;-74
2021/10/28 05:25:08;;;;;;;22.05;11.20;;;;;;;5.11;52.81;94777.41;4966462;28;20038;-74
2021/10/28 05:27:33;;;;;;;15.88;10.07;;;;;;;5.25;53.00;94817.28;4965107;28;20438;-73
2021/10/28 05:29:59;;;;;;;17.20;9.93;;;;;;;5.50;52.88;94825.34;4961250;28;20038;-74
2021/10/28 05:32:24;;;;;;;18.20;10.90;;;;;;;5.58;52.95;94833.56;4966180;28;20081;-73
2021/10/28 05:34:49;;;;;;;19.73;9.77;;;;;;;5.62;52.69;94838.34;4964700;28;20814;-74
2021/10/28 05:37:16;;;;;;;21.88;11.82;;;;;;;5.64;52.88;94841.50;4963851;28;20038;-74
2021/10/28 05:39:42;;;;;;;21.33;11.73;;;;;;;5.82;52.57;94844.50;4965931;28;20130;-74
2021/10/28 05:42:07;;;;;;;22.30;12.48;;;;;;;6.14;52.19;94846.19;4967190;28;20525;-74
2021/10/28 05:44:33;;;;;;;22.08;12.02;;;;;;;6.15;52.49;94853.06;4963092;28;20045;-74
2021/10/28 05:46:58;;;;;;;20.85;12.38;;;;;;;6.26;52.34;94849.44;4963151;28;20621;-74
2021/10/28 05:49:26;;;;;;;24.45;13.32;;;;;;;6.27;53.00;94862.38;4963271;28;20034;-74
2021/10/28 05:51:52;;;;;;;21.27;13.40;;;;;;;6.12;53.53;94864.16;4965485;28;20057;-74
2021/10/28 05:54:17;;;;;;;24.30;14.82;;;;;;;5.90;54.41;94849.31;4962461;28;20303;-74
2021/10/28 05:56:43;;;;;;;22.58;14.10;;;;;;;6.19;53.74;94848.88;4966347;28;20042;-74
2021/10/28 05:59:08;;;;;;;23.42;14.80;;;;;;;6.35;53.29;94853.97;4965061;28;20038;-74
2021/10/28 06:01:33;;;;;;;24.63;15.13;;;;;;;6.23;53.80;94857.88;4961704;28;20039;-74
2021/10/28 06:03:59;;;;;;;25.40;15.00;;;;;;;6.30;53.99;94867.16;4964976;28;20034;-74
2021/10/28 06:06:24;;;;;;;24.65;14.18;;;;;;;6.36;53.92;94865.34;4968169;28;20030;-74
2021/10/28 06:08:50;;;;;;;27.23;15.05;;;;;;;6.24;54.15;94851.53;4965385;28;20042;-74
2021/10/28 06:11:16;;;;;;;23.85;13.27;;;;;;;6.34;53.91;94851.56;4964327;28;20046;-74
2021/10/28 06:13:45;;;;;;;25.90;14.35;;;;;;;6.29;54.27;94846.28;4968653;28;20077;-73
2021/10/28 06:16:11;;;;;;;27.80;15.55;;;;;;;6.59;53.86;94853.47;4963250;28;20485;-75
2021/10/28 06:18:38;;;;;;;24.60;14.88;;;;;;;6.36;53.99;94838.91;4964252;28;20331;-74
2021/10/28 06:21:05;;;;;;;26.38;16.58;;;;;;;6.59;54.38;94854.28;4963575;28;20186;-74
2021/10/28 06:23:31;;;;;;;31.95;16.38;;;;;;;6.68;54.29;94857.97;4962308;28;20493;-74
2021/10/28 06:25:56;;;;;;;24.77;15.52;;;;;;;6.71;54.10;94831.00;4965660;28;20050;-74
2021/10/28 06:28:22;;;;;;;25.67;15.82;;;;;;;6.84;54.07;94835.00;4955090;28;20034;-74
2021/10/28 06:30:47;;;;;;;28.27;16.00;;;;;;;6.84;54.50;94864.88;4961542;28;20127;-74
2021/10/28 06:33:19;;;;;;;34.45;18.60;;;;;;;6.72;55.07;94856.38;4961916;28;20069;-74
2021/10/28 06:35:45;;;;;;;32.83;17.25;;;;;;;6.86;54.51;94844.22;4963773;28;20573;-74
2021/10/28 06:38:11;;;;;;;29.45;16.63;;;;;;;7.02;54.25;94847.69;4964139;28;20332;-73
2021/10/28 06:40:37;;;;;;;35.88;16.13;;;;;;;6.95;54.72;94851.63;4964020;28;20494;-74
2021/10/28 06:43:03;;;;;;;28.50;15.90;;;;;;;7.22;54.35;94854.81;4964908;28;20046;-74
2021/10/28 06:45:29;;;;;;;21.02;13.25;;;;;;;7.15;54.15;94851.63;4959225;28;21038;-74
2021/10/28 06:47:56;;;;;;;24.10;14.75;;;;;;;7.10;54.21;94854.28;4962534;28;20050;-74
2021/10/28 06:50:26;;;;;;;37.83;18.63;;;;;;;6.94;55.47;94856.16;4959708;28;20092;-74
2021/10/28 06:52:57;;;;;;;134.85;64.28;;;;;;;7.11;55.08;94854.00;4961943;28;20475;-74
2021/10/28 06:55:53;;;;;;;28.00;17.33;;;;;;;7.03;54.61;94837.88;4962215;28;20034;-74
2021/10/28 07:03:37;;;;;;;30.20;13.10;;;;;;;7.62;53.34;94862.69;4962081;28;20473;-74
2021/10/28 07:06:08;;;;;;;40.88;17.17;;;;;;;7.67;53.58;94860.03;4961199;28;20505;-74
2021/10/28 07:08:36;;;;;;;28.15;15.23;;;;;;;7.42;53.34;94822.22;4962414;28;20038;-74
2021/10/28 07:11:07;;;;;;;35.22;17.95;;;;;;;7.66;53.69;94862.94;4954884;28;20039;-74
2021/10/28 07:13:33;;;;;;;26.00;15.55;;;;;;;7.38;53.90;94837.84;4963426;28;20207;-74
2021/10/28 07:16:09;;;;;;;27.92;16.08;;;;;;;6.75;55.44;94831.28;4962893;28;20051;-75
2021/10/28 07:18:58;;;;;;;27.48;16.63;;;;;;;7.32;54.89;94856.66;4963495;28;20058;-74
2021/10/28 07:56:25;;;;;;;32.90;18.00;;;;;;;7.82;55.39;94861.06;4959841;28;20512;-74
2021/10/28 08:17:00;;;;;;;25.98;16.13;;;;;;;7.61;56.38;94847.84;4970551;28;20088;-74
2021/10/28 08:19:30;;;;;;;28.58;16.35;;;;;;;7.10;57.83;94825.16;4965360;28;20046;-74
2021/10/28 08:29:51;;;;;;;36.30;19.52;;;;;;;7.28;58.14;94835.22;4967278;28;20703;-73
2021/10/28 08:32:17;;;;;;;32.10;18.95;;;;;;;7.15;58.67;94839.19;4970541;28;20042;-74
2021/10/28 08:34:44;;;;;;;30.33;19.08;;;;;;;7.13;59.51;94838.69;4963763;28;20526;-73
2021/10/28 08:37:17;;;;;;;38.22;19.92;;;;;;;7.70;58.15;94846.22;4968470;28;20050;-74
2021/10/28 08:39:47;;;;;;;37.75;21.15;;;;;;;8.19;56.72;94837.59;4969794;28;20493;-73
2021/10/28 08:42:16;;;;;;;30.02;19.48;;;;;;;7.62;58.10;94841.50;4967107;28;20474;-73
2021/10/28 08:44:52;;;;;;;32.22;19.23;;;;;;;7.22;59.37;94825.69;4969213;28;20039;-74
2021/10/28 08:47:20;;;;;;;32.58;19.48;;;;;;;7.73;59.46;94836.97;4966921;28;20042;-74
2021/10/28 08:50:05;;;;;;;40.65;23.27;;;;;;;7.57;58.73;94825.63;4966459;28;20124;-74
2021/10/28 08:52:46;;;;;;;40.20;22.92;;;;;;;7.98;58.06;94822.84;4967728;28;20042;-74
2021/10/28 09:00:24;;;;;;;35.08;20.15;;;;;;;8.44;56.83;94828.72;4965773;28;20404;-74
2021/10/28 09:25:41;;;;;;;40.53;17.88;;;;;;;8.87;55.12;94816.47;4965839;28;20053;-74
2021/10/28 09:28:38;;;;;;;30.00;17.33;;;;;;;8.24;55.96;94797.81;4958967;28;20026;-74
2021/10/28 09:31:14;;;;;;;27.33;16.80;;;;;;;8.50;56.07;94804.56;4966113;28;20053;-74
2021/10/28 09:50:52;;;;;;;25.25;15.60;;;;;;;9.23;53.40;94790.44;4944999;28;20468;-73
2021/10/28 09:58:26;;;;;;;28.13;14.93;;;;;;;9.43;53.28;94780.41;4961957;28;20034;-74
2021/10/28 10:00:52;;;;;;;25.30;14.10;;;;;;;9.34;52.95;94766.16;4963528;28;20026;-76
2021/10/28 10:03:27;;;;;;;24.23;13.05;;;;;;;9.43;52.89;94769.81;4961825;28;20108;-75
2021/10/28 10:06:05;;;;;;;;;;;;;;;9.48;53.40;94762.84;4974063;28;20897;-73
2021/10/28 10:08:34;;;;;;;20.00;12.00;;;;;;;9.88;52.83;94763.13;4976195;28;20011;-74
2021/10/28 10:11:01;;;;;;;19.17;11.13;;;;;;;9.53;53.19;94762.78;4966908;28;20574;-75
2021/10/28 10:13:28;;;;;;;21.98;9.93;;;;;;;9.67;52.50;94745.09;4980090;28;20042;-74
2021/10/28 10:16:01;;;;;;;19.10;10.95;;;;;;;10.09;51.83;94750.38;4958370;28;20052;-74
2021/10/28 10:18:38;;;;;;;14.98;9.45;;;;;;;10.26;51.06;94729.41;4962457;28;20030;-75
2021/10/28 10:21:18;;;;;;;15.45;9.27;;;;;;;10.61;50.43;94724.66;4962892;28;20073;-74
2021/10/28 11:03:14;;;;;;;17.17;6.53;;;;;;;10.70;47.80;94713.06;4956259;28;20035;-74
2021/10/28 11:27:13;;;;;;;8.60;4.70;;;;;;;11.12;43.09;94640.16;4959704;28;20042;-75
2021/10/28 11:32:44;;;;;;;7.63;3.72;;;;;;;11.55;42.35;94613.22;4960791;28;20464;-73
2021/10/28 12:43:28;;;;;;;3.13;1.95;;;;;;;12.22;32.76;94608.78;4981040;28;20628;-74
2021/10/28 12:46:13;;;;;;;2.43;1.83;;;;;;;12.30;33.45;94583.22;4961795;28;20041;-75
2021/10/28 13:49:55;;;;;;;4.80;2.33;;;;;;;12.92;34.54;94551.22;4961342;28;20046;-74
2021/10/28 14:23:54;;;;;;;8.95;3.75;;;;;;;14.97;32.61;94565.63;4957720;28;20074;-75
2021/10/28 14:32:16;;;;;;;13.55;6.55;;;;;;;14.92;32.02;94547.84;4960936;28;20213;-74
2021/10/28 15:02:23;;;;;;;7.05;5.22;;;;;;;14.18;34.03;94571.47;4964648;28;20046;-74
2021/10/28 15:29:54;;;;;;;4.15;2.72;;;;;;;13.77;32.02;94545.25;4970334;28;20120;-75
2021/10/28 16:23:21;;;;;;;8.68;4.75;;;;;;;12.36;34.58;94555.34;4966823;28;20041;-74
2021/10/28 16:25:47;;;;;;;8.73;5.07;;;;;;;11.89;35.22;94586.88;4968567;28;20034;-75
2021/10/28 16:28:17;;;;;;;7.25;4.72;;;;;;;11.53;36.05;94591.44;4963727;28;20045;-75
2021/10/28 16:30:45;;;;;;;7.72;4.72;;;;;;;12.00;35.34;94585.56;4963418;28;20022;-75
2021/10/28 16:33:11;;;;;;;16.40;9.98;;;;;;;12.25;35.42;94581.47;4960405;28;20054;-75
2021/10/28 16:35:37;;;;;;;15.45;8.48;;;;;;;12.46;35.40;94587.09;4961616;28;20046;-75
2021/10/28 16:38:04;;;;;;;11.20;5.40;;;;;;;11.83;36.08;94572.06;4963256;28;20100;-74
2021/10/28 16:40:30;;;;;;;7.55;4.97;;;;;;;11.83;35.83;94590.72;4959121;28;20030;-75
2021/10/28 16:42:56;;;;;;;8.43;4.50;;;;;;;11.58;35.86;94588.66;4963012;28;20037;-75
2021/10/28 16:45:21;;;;;;;10.63;4.20;;;;;;;10.72;37.16;94577.06;4961575;28;20034;-75
2021/10/28 16:47:47;;;;;;;8.18;4.32;;;;;;;11.35;36.45;94600.28;4966352;28;20101;-75
2021/10/28 16:50:13;;;;;;;6.63;3.97;;;;;;;10.56;37.38;94589.09;4966578;28;20121;-74
2021/10/28 16:52:39;;;;;;;6.70;4.47;;;;;;;10.43;38.17;94606.59;4966901;28;20121;-75
2021/10/28 16:55:05;;;;;;;7.63;4.43;;;;;;;10.56;38.33;94602.38;4964498;28;20053;-75
2021/10/28 16:57:30;;;;;;;8.75;5.45;;;;;;;10.43;38.74;94608.44;4968660;28;20176;-76
2021/10/28 16:59:56;;;;;;;9.00;5.40;;;;;;;10.04;39.22;94576.91;4962713;28;20126;-75
2021/10/28 17:02:21;;;;;;;14.45;6.93;;;;;;;10.63;38.92;94600.13;4964540;28;20039;-74
2021/10/28 17:04:47;;;;;;;8.98;6.07;;;;;;;10.78;38.84;94599.84;4967105;28;20038;-75
2021/10/28 17:07:14;;;;;;;13.32;7.18;;;;;;;11.29;38.73;94617.50;4965385;28;20035;-75
2021/10/28 17:09:39;;;;;;;8.63;6.15;;;;;;;11.46;38.33;94617.66;4965522;28;20041;-74
2021/10/28 17:12:05;;;;;;;10.35;6.07;;;;;;;11.39;38.29;94585.31;4966720;28;20051;-74
2021/10/28 17:14:30;;;;;;;16.70;8.00;;;;;;;11.64;38.24;94608.00;4966010;28;20384;-76
2021/10/28 17:16:56;;;;;;;9.48;6.22;;;;;;;11.53;37.59;94594.09;4968473;28;20089;-75
2021/10/28 17:19:23;;;;;;;8.90;5.30;;;;;;;11.56;37.15;94575.63;4964165;28;20099;-75
2021/10/28 17:21:49;;;;;;;8.07;4.78;;;;;;;11.81;37.09;94603.59;4970754;28;20022;-75
2021/10/28 17:24:33;;;;;;;8.02;5.22;;;;;;;11.77;36.88;94591.16;4967069;28;20058;-75
2021/10/28 17:27:00;;;;;;;8.38;4.40;;;;;;;11.65;36.78;94583.69;4965970;28;20495;-75
2021/10/28 17:29:25;;;;;;;7.45;4.70;;;;;;;11.52;36.45;94589.84;4966245;28;20038;-75
2021/10/28 17:31:55;;;;;;;9.88;4.53;;;;;;;11.57;37.19;94592.41;4970291;28;20050;-74
2021/10/28 17:34:21;;;;;;;7.63;5.00;;;;;;;11.69;37.38;94611.31;4965131;28;20035;-76
2021/10/28 17:36:52;;;;;;;6.28;4.25;;;;;;;11.73;37.36;94611.53;4965995;28;20045;-74
2021/10/28 17:39:17;;;;;;;8.15;4.65;;;;;;;11.80;37.76;94612.66;4966844;28;20752;-75
2021/10/28 17:41:42;;;;;;;9.98;5.22;;;;;;;11.75;37.49;94615.44;4964166;28;20049;-74
2021/10/28 17:44:08;;;;;;;7.55;5.43;;;;;;;11.56;37.27;94580.16;4968599;28;20043;-74
2021/10/28 17:46:33;;;;;;;11.55;5.75;;;;;;;11.60;37.37;94603.25;4963810;28;20047;-74
2021/10/28 17:49:00;;;;;;;14.48;7.78;;;;;;;11.72;37.11;94605.41;4967462;28;20038;-74
2021/10/28 17:51:26;;;;;;;13.13;8.88;;;;;;;11.70;37.15;94601.44;4964333;28;20148;-74
2021/10/28 17:53:52;;;;;;;10.52;6.35;;;;;;;11.62;37.36;94621.59;4967845;28;20816;-74
2021/10/28 17:56:19;;;;;;;14.88;6.15;;;;;;;11.48;37.77;94626.94;4962960;28;20299;-74
2021/10/28 17:58:45;;;;;;;11.60;6.63;;;;;;;11.60;38.02;94639.75;4965701;28;20053;-74
2021/10/28 18:01:14;;;;;;;10.45;6.47;;;;;;;11.26;38.22;94610.06;4953115;28;20774;-73
2021/10/28 18:03:39;;;;;;;11.73;6.32;;;;;;;11.18;38.65;94616.91;4961777;28;20030;-75
2021/10/28 18:06:05;;;;;;;9.85;5.88;;;;;;;11.32;38.38;94633.66;4965380;28;20043;-75
2021/10/28 18:08:31;;;;;;;8.43;5.82;;;;;;;11.09;38.64;94629.34;4973420;28;20624;-75
2021/10/28 18:10:57;;;;;;;10.88;6.30;;;;;;;10.97;39.04;94632.47;4964544;28;20953;-75
2021/10/28 18:13:22;;;;;;;13.60;6.55;;;;;;;10.86;38.85;94627.63;4959566;28;20058;-75
2021/10/28 18:15:50;;;;;;;13.25;6.53;;;;;;;10.91;39.46;94646.94;4972243;28;20054;-75
2021/10/28 18:18:16;;;;;;;13.20;7.03;;;;;;;10.88;39.18;94644.88;4956525;28;20124;-76
2021/10/28 18:20:42;;;;;;;10.52;6.90;;;;;;;10.86;39.16;94639.06;4960858;28;20038;-75
2021/10/28 18:23:08;;;;;;;17.98;8.40;;;;;;;10.92;38.93;94648.53;4964077;28;20046;-76
2021/10/28 18:25:36;;;;;;;11.95;7.10;;;;;;;10.78;39.02;94626.44;4967547;28;20497;-75
2021/10/28 18:28:01;;;;;;;18.08;8.82;;;;;;;10.85;38.86;94642.81;4962666;28;20121;-75
2021/10/28 18:30:29;;;;;;;14.35;7.57;;;;;;;10.65;38.65;94608.59;4966545;28;20130;-75
2021/10/28 18:32:56;;;;;;;12.73;7.07;;;;;;;10.78;39.14;94653.06;4964073;28;20034;-75
2021/10/28 18:35:21;;;;;;;15.20;7.80;;;;;;;10.63;39.32;94626.72;4958856;28;20140;-75
2021/10/28 18:37:48;;;;;;;15.55;7.53;;;;;;;10.53;39.18;94605.63;4962291;28;20043;-75
2021/10/28 18:40:16;;;;;;;13.32;7.88;;;;;;;10.69;39.41;94636.97;4960906;28;20660;-75
2021/10/28 18:42:42;;;;;;;16.25;8.45;;;;;;;10.68;39.06;94645.25;4965290;28;20034;-75
2021/10/28 18:45:08;;;;;;;12.85;7.55;;;;;;;10.48;39.07;94609.16;4964419;28;20034;-76
2021/10/28 18:47:34;;;;;;;14.38;7.53;;;;;;;10.62;39.20;94641.88;4964909;28;20756;-75
2021/10/28 18:50:00;;;;;;;11.75;6.82;;;;;;;10.60;39.14;94644.06;4964191;28;20035;-75
2021/10/28 18:52:25;;;;;;;10.95;6.57;;;;;;;10.64;39.08;94639.72;4952146;28;20050;-75
2021/10/28 18:54:51;;;;;;;12.10;7.25;;;;;;;10.40;39.29;94614.38;4960199;28;20031;-76
2021/10/28 18:57:18;;;;;;;12.70;6.63;;;;;;;10.37;39.01;94622.94;4955996;28;20073;-75
2021/10/28 18:59:44;;;;;;;14.88;7.45;;;;;;;10.49;39.31;94644.53;4951933;28;20074;-75
2021/10/28 19:02:10;;;;;;;10.68;6.70;;;;;;;10.41;39.55;94646.00;4955721;28;20042;-76
2021/10/28 19:04:36;;;;;;;11.63;6.85;;;;;;;10.25;39.61;94626.00;4958073;28;20596;-75
2021/10/28 19:07:03;;;;;;;15.77;8.02;;;;;;;10.43;39.00;94632.38;4957569;28;20027;-76
2021/10/28 19:09:30;;;;;;;14.57;7.28;;;;;;;10.43;39.06;94637.69;4958590;28;20038;-75
2021/10/28 19:11:55;;;;;;;16.88;7.40;;;;;;;10.52;38.89;94652.69;4957993;28;20046;-75
2021/10/28 19:14:21;;;;;;;15.20;7.95;;;;;;;10.31;39.49;94641.59;4974155;28;20038;-77
2021/10/28 19:16:46;;;;;;;15.75;7.90;;;;;;;10.29;39.60;94656.25;4961510;28;20042;-76
2021/10/28 19:19:13;;;;;;;16.40;8.05;;;;;;;10.06;39.90;94649.19;4960677;28;20150;-76
2021/10/28 19:21:40;;;;;;;25.73;10.95;;;;;;;10.08;40.07;94663.75;4957663;28;20526;-75
2021/10/28 19:24:06;;;;;;;31.27;12.57;;;;;;;10.05;39.95;94669.66;4964211;28;20038;-74
2021/10/28 19:26:32;;;;;;;27.15;10.60;;;;;;;9.88;40.69;94666.69;4960758;28;20041;-75
2021/10/28 19:29:00;;;;;;;23.35;11.55;;;;;;;9.84;40.87;94658.50;4964576;28;20085;-75
2021/10/28 19:31:30;;;;;;;18.40;7.78;;;;;;;9.64;40.84;94661.44;4958363;28;20568;-75
2021/10/28 19:33:59;;;;;;;13.35;7.35;;;;;;;9.50;41.57;94675.72;4969001;28;20478;-76
2021/10/28 19:36:30;;;;;;;16.10;7.85;;;;;;;9.19;41.64;94662.03;4964682;28;20034;-74
2021/10/28 19:42:09;;;;;;;14.98;7.85;;;;;;;9.31;41.81;94679.13;4956727;28;20103;-75
2021/10/28 19:47:19;;;;;;;16.40;8.13;;;;;;;9.56;41.87;94687.84;4963078;28;20100;-74
2021/10/28 19:49:46;;;;;;;14.05;7.57;;;;;;;9.41;41.77;94686.97;4961918;28;20043;-75
2021/10/28 19:52:15;;;;;;;15.52;8.48;;;;;;;9.31;41.98;94671.16;4966849;28;20089;-74
2021/10/28 19:54:43;;;;;;;11.45;6.88;;;;;;;9.27;42.37;94682.63;4961955;28;20506;-75
2021/10/28 19:57:20;;;;;;;15.27;8.05;;;;;;;9.33;42.01;94682.31;4962214;28;20514;-75
2021/10/28 19:59:51;;;;;;;18.23;8.77;;;;;;;9.36;41.91;94678.28;4959269;28;20042;-75
2021/10/28 20:02:27;;;;;;;15.10;7.20;;;;;;;9.29;41.98;94683.16;4960225;28;20039;-75
2021/10/28 20:07:23;;;;;;;11.32;7.25;;;;;;;9.20;42.36;94690.13;4960421;28;20100;-75
2021/10/28 20:20:35;;;;;;;15.98;7.72;;;;;;;9.34;42.77;94680.44;4967534;28;20077;-74
2021/10/28 20:23:00;;;;;;;12.07;7.15;;;;;;;9.34;42.93;94681.19;4966633;28;20703;-75
2021/10/28 20:25:28;;;;;;;9.50;6.15;;;;;;;9.37;43.28;94685.16;4968740;28;20052;-75